createdAt,value
2023-03-23T15:59:05.988Z,15.63
2023-03-23T16:01:32.354Z,15.58
2023-03-23T16:03:58.733Z,15.43
2023-03-23T16:06:25.698Z,15.37
2023-03-23T16:08:53.823Z,15.32
2023-03-23T16:11:18.112Z,15.34
2023-03-23T16:13:45.577Z,15.29
2023-03-23T16:16:11.916Z,15.27
2023-03-23T16:18:38.378Z,15.25
2023-03-23T16:21:04.757Z,15.22
2023-03-23T16:23:31.079Z,15.17
2023-03-23T16:25:57.411Z,15.13
2023-03-23T16:28:23.810Z,15.06
2023-03-23T16:30:50.231Z,15.02
2023-03-23T16:33:16.556Z,14.96
2023-03-23T16:35:43.154Z,14.88
2023-03-23T16:38:09.462Z,14.82
2023-03-23T16:40:35.817Z,14.72
2023-03-23T16:43:02.157Z,14.66
2023-03-23T16:45:28.484Z,14.61
2023-03-23T16:47:54.960Z,14.56
2023-03-23T16:50:21.336Z,14.51
2023-03-23T16:52:47.711Z,14.46
2023-03-23T16:55:14.068Z,14.34
2023-03-23T16:57:41.409Z,14.17
2023-03-23T17:00:07.015Z,14.09
2023-03-23T17:02:33.462Z,14.05
2023-03-23T17:04:59.735Z,14.03
2023-03-23T17:07:26.186Z,13.97
2023-03-23T17:09:52.533Z,13.95
2023-03-23T17:12:19.002Z,13.94
2023-03-23T17:14:45.352Z,13.92
2023-03-23T17:17:11.789Z,13.89
2023-03-23T17:19:38.185Z,13.85
2023-03-23T17:22:04.530Z,13.81
2023-03-23T17:24:30.892Z,13.74
2023-03-23T17:26:57.317Z,13.68
2023-03-23T17:29:23.724Z,13.64
2023-03-23T17:31:50.238Z,13.55
2023-03-23T17:34:18.106Z,13.48
2023-03-23T17:36:42.939Z,13.40
2023-03-23T17:39:09.340Z,13.32
2023-03-23T17:41:35.715Z,13.27
2023-03-23T17:44:02.028Z,13.23
2023-03-23T17:46:28.512Z,13.20
2023-03-23T17:48:54.820Z,13.15
2023-03-23T17:51:21.189Z,13.12
2023-03-23T17:53:47.725Z,13.08
2023-03-23T17:56:14.116Z,13.07
2023-03-23T17:58:40.481Z,13.02
2023-03-23T18:01:06.870Z,12.99
2023-03-23T18:03:33.263Z,12.95
2023-03-23T18:05:59.609Z,12.92
2023-03-23T18:08:25.981Z,12.89
2023-03-23T18:10:52.402Z,12.86
2023-03-23T18:13:18.741Z,12.83
2023-03-23T18:15:46.668Z,12.79
2023-03-23T18:18:11.586Z,12.78
2023-03-23T18:20:37.929Z,12.77
2023-03-23T18:23:05.517Z,12.73
2023-03-23T18:25:31.904Z,12.71
2023-03-23T18:27:58.308Z,12.64
2023-03-23T18:30:24.877Z,12.58
2023-03-23T18:32:51.376Z,12.52
2023-03-23T18:35:17.653Z,12.46
2023-03-23T18:37:43.980Z,12.41
2023-03-23T18:40:10.369Z,12.37
2023-03-23T18:42:36.785Z,12.33
2023-03-23T18:45:03.153Z,12.29
2023-03-23T18:47:29.573Z,12.25
2023-03-23T18:49:56.053Z,12.23
2023-03-23T18:52:22.373Z,12.19
2023-03-23T18:54:48.759Z,12.18
2023-03-23T18:57:15.148Z,12.17
2023-03-23T18:59:41.538Z,12.17
2023-03-23T19:02:08.027Z,12.17
2023-03-23T19:04:34.342Z,12.12
2023-03-23T19:07:00.658Z,12.05
2023-03-23T19:09:27.053Z,11.96
2023-03-23T19:11:53.390Z,11.84
2023-03-23T19:14:19.760Z,11.73
2023-03-23T19:16:46.118Z,11.58
2023-03-23T19:19:13.693Z,11.42
2023-03-23T19:21:40.220Z,11.29
2023-03-23T19:24:06.201Z,11.15
2023-03-23T19:26:35.861Z,11.02
2023-03-23T19:31:27.727Z,10.71
2023-03-23T19:33:54.261Z,10.54
2023-03-23T19:36:20.399Z,10.45
2023-03-23T19:38:46.818Z,10.39
2023-03-23T19:41:13.199Z,10.30
2023-03-23T19:43:39.571Z,10.25
2023-03-23T19:46:06.018Z,10.24
2023-03-23T19:48:32.276Z,10.15
2023-03-23T19:50:58.657Z,10.16
2023-03-23T19:53:26.522Z,10.20
2023-03-23T19:55:51.765Z,10.25
2023-03-23T19:58:17.995Z,10.25
2023-03-23T20:00:44.846Z,10.21
2023-03-23T20:03:11.683Z,10.15
2023-03-23T20:05:38.052Z,10.09
2023-03-23T20:08:04.838Z,10.06
2023-03-23T20:10:30.739Z,10.03
2023-03-23T20:12:57.176Z,10.03
2023-03-23T20:15:23.522Z,10.06
2023-03-23T20:17:49.977Z,10.07
2023-03-23T20:20:16.295Z,10.05
2023-03-23T20:22:42.667Z,10.02
2023-03-23T20:25:09.080Z,10.04
2023-03-23T20:27:35.475Z,10.01
2023-03-23T20:30:03.945Z,9.99
2023-03-23T20:32:28.257Z,9.94
2023-03-23T20:34:54.560Z,9.92
2023-03-23T20:37:21.028Z,9.89
2023-03-23T20:39:47.318Z,9.88
2023-03-23T20:42:13.707Z,9.89
2023-03-23T20:44:42.256Z,9.91
2023-03-23T20:47:08.650Z,9.93
2023-03-23T20:49:35.014Z,9.92
2023-03-23T20:52:01.423Z,9.90
2023-03-23T20:54:27.746Z,9.88
2023-03-23T20:56:56.162Z,9.85
2023-03-23T20:59:20.744Z,9.81
2023-03-23T21:01:47.124Z,9.77
2023-03-23T21:04:13.461Z,9.76
2023-03-23T21:06:39.861Z,9.68
2023-03-23T21:09:06.257Z,9.60
2023-03-23T21:11:32.642Z,9.55
2023-03-23T21:13:58.955Z,9.46
2023-03-23T21:16:25.465Z,9.45
2023-03-23T21:18:51.871Z,9.42
2023-03-23T21:21:18.436Z,9.33
2023-03-23T21:23:44.837Z,9.27
2023-03-23T21:26:11.192Z,9.24
2023-03-23T21:28:37.585Z,9.18
2023-03-23T21:31:13.321Z,9.15
2023-03-23T21:33:39.640Z,9.14
2023-03-23T21:36:06.052Z,9.07
2023-03-23T21:38:32.445Z,9.07
2023-03-23T21:40:58.827Z,9.11
2023-03-23T21:43:25.191Z,9.07
2023-03-23T21:45:51.625Z,9.08
2023-03-23T21:48:17.956Z,9.06
2023-03-23T21:50:44.534Z,9.03
2023-03-23T21:53:10.757Z,9.04
2023-03-23T21:55:37.092Z,9.06
2023-03-23T21:58:03.429Z,9.04
2023-03-23T22:00:30.098Z,9.02
2023-03-23T22:02:56.477Z,9.03
2023-03-23T22:05:22.815Z,9.05
2023-03-23T22:07:49.382Z,9.04
2023-03-23T22:10:15.756Z,9.05
2023-03-23T22:12:42.083Z,9.04
2023-03-23T22:15:08.429Z,8.99
2023-03-23T22:17:34.786Z,8.98
2023-03-23T22:20:01.156Z,8.97
2023-03-23T22:22:27.506Z,8.96
2023-03-23T22:24:53.848Z,8.96
2023-03-23T22:27:20.283Z,8.95
2023-03-23T22:29:46.616Z,8.92
2023-03-23T22:32:12.967Z,8.88
2023-03-23T22:34:39.342Z,8.87
2023-03-23T22:37:05.687Z,8.80
2023-03-23T22:39:32.149Z,8.73
2023-03-23T22:41:58.454Z,8.66
2023-03-23T22:44:24.901Z,8.61
2023-03-23T22:46:51.339Z,8.63
2023-03-23T22:49:19.847Z,8.62
2023-03-23T22:51:46.227Z,8.57
2023-03-23T22:54:12.583Z,8.58
2023-03-23T22:56:38.994Z,8.52
2023-03-23T22:59:05.360Z,8.54
2023-03-23T23:01:31.757Z,8.51
2023-03-23T23:03:58.135Z,8.50
2023-03-23T23:06:24.421Z,8.53
2023-03-23T23:08:51.174Z,8.53
2023-03-23T23:11:17.498Z,8.52
2023-03-23T23:13:43.857Z,8.53
2023-03-23T23:16:10.220Z,8.50
2023-03-23T23:18:36.539Z,8.51
2023-03-23T23:21:02.886Z,8.51
2023-03-23T23:23:29.233Z,8.52
2023-03-23T23:25:55.589Z,8.53
2023-03-23T23:28:21.965Z,8.51
2023-03-23T23:30:48.757Z,8.48
2023-03-23T23:33:14.724Z,8.48
2023-03-23T23:35:41.102Z,8.50
2023-03-23T23:38:07.421Z,8.49
2023-03-23T23:40:33.765Z,8.52
2023-03-23T23:43:00.228Z,8.54
2023-03-23T23:45:26.560Z,8.52
2023-03-23T23:47:53.067Z,8.48
2023-03-23T23:50:19.386Z,8.43
2023-03-23T23:52:45.731Z,8.39
2023-03-23T23:55:12.132Z,8.36
2023-03-23T23:57:38.467Z,8.36
